KPQL

Trent Lott International Airport

Pascagoula, Mississippi, USA
METAR KPQL 151853Z 18006KT 10SM BKN039 OVC050 21/15 A2990 RMK AO2 SLP126 T02060150
Observed Flight Rules
Feb-15 @ 18:53 UTC (17 minutes ago) Visual Flight Rules
Wind Visibility Clouds
180° at 6 knots 10 miles
  • Broken at 3,900' AGL
  • Overcast at 5,000' AGL
Temperatures Readings
Current 21°C / 70°F
Dewpoint 15°C / 59°F
Humidity 69%
Altimeter 29.9" Hg
Pressure 1012.6 hPa
Elevation 6
METAR KPQL 151853Z 18006KT 10SM BKN039 OVC050 21/15 A2990 RMK AO2 SLP126 T02060150
Observed Flight Rules
Feb-15 @ 18:53 UTC
(17 minutes ago)
VFR
Wind Visibility
180° at 6 knots 10 miles
Clouds
  • Broken at 3,900' AGL
  • Overcast at 5,000' AGL
Temperature Dewpoint
21°C / 70°F 15°C / 59°F
Humidity Altimeter Pressure
69% 29.9" Hg 1012.6 hPa